createdAt,value
2023-03-08T00:00:52.134Z,5.28
2023-03-08T00:04:34.822Z,5.07
2023-03-08T00:08:18.109Z,5.88
2023-03-08T00:11:59.892Z,5.38
2023-03-08T00:15:41.629Z,5.95
2023-03-08T00:19:23.388Z,5.10
2023-03-08T00:23:05.164Z,5.15
2023-03-08T00:26:47.001Z,5.90
2023-03-08T00:30:28.975Z,5.43
2023-03-08T00:34:10.857Z,6.43
2023-03-08T00:37:52.576Z,6.25
2023-03-08T00:41:34.401Z,5.97
2023-03-08T00:45:16.363Z,5.88
2023-03-08T00:48:58.756Z,6.28
2023-03-08T00:52:40.525Z,6.55
2023-03-08T00:56:22.382Z,5.75
2023-03-08T01:00:08.270Z,6.80
2023-03-08T01:03:50.239Z,6.70
2023-03-08T01:07:31.955Z,6.63
2023-03-08T01:11:22.612Z,7.53
2023-03-08T01:15:05.371Z,7.57
2023-03-08T01:18:47.483Z,8.32
2023-03-08T01:22:29.208Z,8.40
2023-03-08T01:26:16.946Z,8.23
2023-03-08T01:29:58.720Z,8.73
2023-03-08T01:33:41.484Z,9.45
2023-03-08T01:37:23.271Z,8.70
2023-03-08T01:41:06.887Z,7.78
2023-03-08T01:45:01.280Z,9.07
2023-03-08T01:49:13.660Z,9.70
2023-03-08T01:52:58.470Z,8.98
2023-03-08T01:56:42.516Z,8.52
2023-03-08T02:00:26.868Z,8.82
2023-03-08T02:04:10.239Z,9.65
2023-03-08T02:07:52.001Z,10.10
2023-03-08T02:11:35.527Z,10.60
2023-03-08T02:15:20.265Z,10.35
2023-03-08T02:19:10.887Z,9.70
2023-03-08T02:22:53.280Z,8.90
2023-03-08T02:26:37.229Z,8.77
2023-03-08T02:30:27.286Z,10.13
2023-03-08T02:34:09.121Z,9.50
2023-03-08T02:37:50.996Z,9.48
2023-03-08T02:41:32.734Z,9.27
2023-03-08T02:45:14.734Z,9.38
2023-03-08T02:48:56.471Z,10.00
2023-03-08T02:52:38.250Z,9.52
2023-03-08T02:56:20.009Z,9.50
2023-03-08T03:00:01.856Z,10.90
2023-03-08T03:03:43.623Z,9.55
2023-03-08T03:07:25.374Z,11.65
2023-03-08T03:11:12.982Z,11.50
2023-03-08T03:14:54.710Z,11.02
2023-03-08T03:18:36.512Z,12.35
2023-03-08T03:22:18.249Z,13.32
2023-03-08T03:26:08.692Z,13.63
2023-03-08T03:29:50.498Z,13.95
2023-03-08T03:33:32.255Z,14.43
2023-03-08T03:37:13.976Z,13.82
2023-03-08T03:41:07.305Z,13.05
2023-03-08T03:44:49.043Z,12.95
2023-03-08T03:48:30.839Z,12.88
2023-03-08T03:52:12.647Z,11.90
2023-03-08T03:55:54.428Z,12.77
2023-03-08T03:59:36.211Z,12.25
2023-03-08T04:03:18.035Z,12.05
2023-03-08T04:06:59.840Z,11.80
2023-03-08T04:10:41.675Z,12.00
2023-03-08T04:14:23.454Z,11.35
2023-03-08T04:18:05.253Z,12.65
2023-03-08T04:21:46.999Z,10.93
2023-03-08T04:25:28.742Z,13.10
2023-03-08T04:29:10.495Z,12.20
2023-03-08T04:32:52.223Z,12.38
2023-03-08T04:36:34.200Z,12.43
2023-03-08T04:40:16.000Z,11.75
2023-03-08T04:43:57.998Z,12.68
2023-03-08T04:47:39.740Z,10.57
2023-03-08T04:51:26.647Z,10.95
2023-03-08T04:55:08.638Z,11.73
2023-03-08T04:58:50.566Z,11.80
2023-03-08T05:02:33.526Z,12.00
2023-03-08T05:06:15.574Z,13.32
2023-03-08T05:09:57.326Z,11.65
2023-03-08T05:13:39.635Z,11.15
2023-03-08T05:17:21.734Z,12.60
2023-03-08T05:21:11.392Z,11.02
2023-03-08T05:24:53.644Z,11.35
2023-03-08T05:28:41.779Z,11.43
2023-03-08T05:32:23.555Z,10.30
2023-03-08T05:36:06.606Z,11.43
2023-03-08T05:39:48.636Z,10.38
2023-03-08T05:43:30.782Z,10.27
2023-03-08T05:47:12.719Z,10.60
2023-03-08T05:50:54.714Z,9.82
2023-03-08T05:54:36.534Z,8.73
2023-03-08T05:58:18.359Z,9.23
2023-03-08T06:02:00.207Z,10.90
2023-03-08T06:05:41.970Z,10.13
2023-03-08T06:09:23.720Z,9.90
2023-03-08T06:13:08.466Z,10.77
2023-03-08T06:16:50.317Z,10.68
2023-03-08T06:20:32.866Z,10.65
2023-03-08T06:24:14.670Z,10.75
2023-03-08T06:27:56.516Z,12.15
2023-03-08T06:31:38.277Z,11.73
2023-03-08T06:35:20.053Z,11.65
2023-03-08T06:39:02.245Z,12.65
2023-03-08T06:42:44.000Z,11.35
2023-03-08T06:46:25.789Z,11.10
2023-03-08T06:50:08.155Z,12.55
2023-03-08T06:53:49.930Z,10.90
2023-03-08T06:57:31.923Z,11.90
2023-03-08T07:01:14.201Z,11.75
2023-03-08T07:04:55.972Z,10.35
2023-03-08T07:08:39.592Z,11.68
2023-03-08T07:12:21.407Z,10.70
2023-03-08T07:16:11.510Z,11.70
2023-03-08T07:19:53.289Z,11.85
2023-03-08T07:23:35.030Z,11.90
2023-03-08T07:27:16.768Z,11.10
2023-03-08T07:30:58.845Z,13.27
2023-03-08T07:34:40.683Z,11.48
2023-03-08T07:38:22.461Z,12.95
2023-03-08T07:42:04.602Z,12.30
2023-03-08T07:45:46.353Z,12.27
2023-03-08T07:49:28.284Z,12.02
2023-03-08T07:53:10.013Z,11.55
2023-03-08T07:56:52.974Z,12.52
2023-03-08T08:00:34.807Z,11.27
2023-03-08T08:04:16.804Z,11.65
2023-03-08T08:07:58.613Z,11.63
2023-03-08T08:11:41.086Z,11.48
2023-03-08T08:15:25.285Z,9.80
2023-03-08T08:19:08.564Z,10.35
2023-03-08T08:22:53.275Z,10.68
2023-03-08T08:26:35.165Z,10.50
2023-03-08T08:30:17.273Z,10.02
2023-03-08T08:34:00.050Z,9.80
2023-03-08T08:37:41.890Z,10.80
2023-03-08T08:41:24.458Z,10.07
2023-03-08T08:45:06.830Z,9.02
2023-03-08T08:48:48.576Z,9.48
2023-03-08T08:52:30.636Z,10.70
2023-03-08T08:56:27.265Z,9.68
2023-03-08T09:00:10.762Z,9.45
2023-03-08T09:03:53.235Z,9.15
2023-03-08T09:07:36.113Z,8.60
2023-03-08T09:11:19.295Z,8.25
2023-03-08T09:15:01.238Z,10.00
2023-03-08T09:18:42.990Z,8.82
2023-03-08T09:22:26.799Z,8.63
2023-03-08T09:26:08.705Z,8.80
2023-03-08T09:29:50.701Z,8.93
2023-03-08T09:33:32.543Z,7.72
2023-03-08T09:37:14.400Z,8.18
2023-03-08T09:41:21.759Z,7.00
2023-03-08T09:45:16.236Z,6.50
2023-03-08T09:49:01.125Z,6.00
2023-03-08T09:52:54.418Z,5.70
2023-03-08T09:57:01.957Z,4.82
2023-03-08T10:00:44.474Z,4.88
2023-03-08T10:04:35.699Z,4.18
2023-03-08T10:08:26.301Z,4.55
2023-03-08T10:12:32.109Z,3.25
2023-03-08T10:16:27.096Z,3.65
2023-03-08T10:20:27.243Z,3.13
2023-03-08T10:24:14.736Z,3.40
2023-03-08T10:31:39.361Z,3.03
2023-03-08T10:35:38.116Z,2.58
2023-03-08T10:39:21.322Z,3.42
2023-03-08T10:43:06.313Z,3.17
2023-03-08T10:46:50.279Z,2.50
2023-03-08T10:50:36.990Z,2.60
2023-03-08T10:54:18.747Z,2.50
2023-03-08T10:58:01.995Z,2.17
2023-03-08T11:01:53.151Z,2.40
2023-03-08T11:05:34.876Z,2.60
2023-03-08T11:09:31.187Z,2.05
2023-03-08T11:13:47.103Z,2.03
2023-03-08T11:17:35.610Z,1.70
2023-03-08T11:21:46.570Z,1.67
2023-03-08T11:25:36.824Z,1.90
2023-03-08T11:29:41.922Z,1.52
2023-03-08T11:33:45.411Z,1.70
2023-03-08T11:37:48.792Z,1.67
2023-03-08T11:41:57.999Z,1.70
2023-03-08T11:46:04.485Z,1.80
2023-03-08T11:50:05.924Z,1.77
2023-03-08T11:53:53.739Z,1.60
2023-03-08T11:57:40.555Z,1.60
2023-03-08T12:01:46.113Z,1.52
2023-03-08T12:05:34.983Z,1.70
2023-03-08T12:09:24.808Z,1.90
2023-03-08T12:13:24.730Z,2.08
2023-03-08T12:17:20.856Z,2.03
2023-03-08T12:21:22.569Z,1.92
2023-03-08T12:25:13.164Z,2.20
2023-03-08T12:29:00.154Z,2.40
2023-03-08T12:32:43.009Z,2.45
2023-03-08T12:36:43.828Z,2.22
2023-03-08T12:40:52.716Z,2.30
2023-03-08T12:44:34.494Z,2.00
2023-03-08T12:48:28.564Z,2.38
2023-03-08T12:52:19.484Z,2.38
2023-03-08T12:56:21.693Z,2.22
2023-03-08T13:00:24.683Z,2.70
2023-03-08T13:04:39.960Z,2.95
2023-03-08T13:08:42.980Z,2.20
2023-03-08T13:12:50.369Z,2.20
2023-03-08T13:16:41.016Z,2.22
2023-03-08T13:20:48.536Z,1.88
2023-03-08T13:24:36.331Z,1.92
2023-03-08T13:28:20.963Z,2.50
2023-03-08T13:32:12.113Z,2.58
2023-03-08T13:36:01.866Z,2.00
2023-03-08T13:39:58.647Z,1.83
2023-03-08T13:43:40.397Z,1.80
2023-03-08T13:47:29.822Z,1.88
2023-03-08T13:51:17.884Z,2.78
2023-03-08T13:55:02.998Z,2.33
2023-03-08T13:58:50.535Z,1.85
2023-03-08T14:02:32.684Z,2.05
2023-03-08T14:06:24.869Z,2.10
2023-03-08T14:10:13.825Z,2.30
2023-03-08T14:13:57.314Z,2.45
2023-03-08T14:17:41.761Z,2.38
2023-03-08T14:21:29.506Z,2.63
2023-03-08T14:25:26.874Z,2.50
2023-03-08T14:33:15.607Z,2.13
2023-03-08T14:37:01.395Z,2.45
2023-03-08T14:40:51.905Z,2.67
2023-03-08T14:44:33.698Z,2.25
2023-03-08T14:48:30.113Z,2.40
2023-03-08T14:52:21.599Z,1.90
2023-03-08T14:56:09.663Z,2.25
2023-03-08T14:59:52.255Z,2.30
2023-03-08T15:03:34.271Z,2.65
2023-03-08T15:07:22.323Z,2.08
2023-03-08T15:11:04.170Z,2.85
2023-03-08T15:14:46.026Z,2.00
2023-03-08T15:18:27.828Z,2.40
2023-03-08T15:22:13.865Z,2.00
2023-03-08T15:25:57.107Z,2.10
2023-03-08T15:29:38.938Z,1.88
2023-03-08T15:33:22.064Z,2.30
2023-03-08T15:37:04.026Z,2.30
2023-03-08T15:40:45.804Z,2.70
2023-03-08T15:44:27.602Z,2.63
2023-03-08T15:48:15.130Z,2.88
2023-03-08T15:51:56.964Z,3.03
2023-03-08T15:55:39.760Z,2.45
2023-03-08T15:59:21.516Z,2.58
2023-03-08T16:03:03.848Z,2.25
2023-03-08T16:06:45.576Z,2.30
2023-03-08T16:10:29.656Z,2.45
2023-03-08T16:14:17.588Z,2.67
2023-03-08T16:17:59.378Z,2.40
2023-03-08T16:21:41.117Z,2.83
2023-03-08T16:25:23.183Z,2.38
2023-03-08T16:29:04.963Z,2.80
2023-03-08T16:32:47.028Z,3.72
2023-03-08T16:36:29.018Z,3.63
2023-03-08T16:40:11.654Z,3.00
2023-03-08T16:43:55.657Z,2.72
2023-03-08T16:47:37.417Z,3.50
2023-03-08T16:51:21.404Z,3.67
2023-03-08T16:55:03.362Z,3.67
2023-03-08T16:58:45.173Z,3.92
2023-03-08T17:02:26.973Z,3.80
2023-03-08T17:06:11.765Z,3.40
2023-03-08T17:09:53.602Z,3.10
2023-03-08T17:13:35.401Z,2.67
2023-03-08T17:17:17.169Z,3.03
2023-03-08T17:20:58.874Z,2.30
2023-03-08T17:24:40.623Z,3.00
2023-03-08T17:28:22.415Z,3.70
2023-03-08T17:32:04.336Z,3.50
2023-03-08T17:35:46.261Z,3.10
2023-03-08T17:39:28.058Z,3.15
2023-03-08T17:43:09.800Z,3.60
2023-03-08T17:46:51.536Z,3.47
2023-03-08T17:50:36.486Z,3.67
2023-03-08T17:54:19.143Z,3.40
2023-03-08T17:58:00.948Z,3.25
2023-03-08T18:01:43.444Z,5.10
2023-03-08T18:05:25.222Z,4.47
2023-03-08T18:09:10.173Z,3.67
2023-03-08T18:12:51.911Z,3.85
2023-03-08T18:16:34.420Z,4.05
2023-03-08T18:20:18.144Z,4.72
2023-03-08T18:24:00.169Z,4.10
2023-03-08T18:27:41.953Z,4.28
2023-03-08T18:31:26.223Z,4.45
2023-03-08T18:35:08.594Z,4.35
2023-03-08T18:38:50.721Z,4.85
2023-03-08T18:42:33.662Z,4.68
2023-03-08T18:46:15.652Z,5.75
2023-03-08T18:49:57.418Z,5.72
2023-03-08T18:53:39.330Z,5.25
2023-03-08T18:57:21.110Z,5.28
2023-03-08T19:01:08.956Z,6.63
2023-03-08T19:04:51.063Z,6.20
2023-03-08T19:08:32.877Z,6.25
2023-03-08T19:12:15.003Z,5.88
2023-03-08T19:15:56.774Z,6.63
2023-03-08T19:19:38.528Z,7.13
2023-03-08T19:23:20.324Z,7.13
2023-03-08T19:27:03.916Z,7.60
2023-03-08T19:30:45.679Z,6.65
2023-03-08T19:34:29.021Z,7.18
2023-03-08T19:38:10.773Z,7.80
2023-03-08T19:41:57.771Z,8.25
2023-03-08T19:45:39.658Z,8.23
2023-03-08T19:49:24.026Z,9.23
2023-03-08T19:53:05.762Z,7.85
2023-03-08T19:56:47.796Z,8.68
2023-03-08T20:00:29.567Z,8.77
2023-03-08T20:04:12.408Z,8.68
2023-03-08T20:07:54.167Z,8.13
2023-03-08T20:11:36.045Z,9.55
2023-03-08T20:15:17.785Z,10.52
2023-03-08T20:18:59.680Z,10.93
2023-03-08T20:22:42.274Z,10.68
2023-03-08T20:26:26.346Z,11.27
2023-03-08T20:30:12.041Z,12.20
2023-03-08T20:33:54.441Z,9.85
2023-03-08T20:37:36.258Z,8.88
2023-03-08T20:41:20.369Z,8.98
2023-03-08T20:45:02.631Z,10.15
2023-03-08T20:48:45.599Z,9.52
2023-03-08T20:52:27.501Z,10.65
2023-03-08T20:56:14.686Z,9.63
2023-03-08T20:59:56.669Z,10.32
2023-03-08T21:03:38.766Z,11.98
2023-03-08T21:07:20.510Z,11.48
2023-03-08T21:11:02.252Z,10.55
2023-03-08T21:14:44.111Z,11.32
2023-03-08T21:18:25.825Z,11.30
2023-03-08T21:22:07.589Z,11.20
2023-03-08T21:25:51.294Z,11.60
2023-03-08T21:29:33.085Z,12.35
2023-03-08T21:33:14.815Z,12.20
2023-03-08T21:36:56.952Z,13.13
2023-03-08T21:40:41.098Z,11.85
2023-03-08T21:44:23.207Z,12.57
2023-03-08T21:48:05.299Z,12.55
2023-03-08T21:51:47.942Z,12.57
2023-03-08T21:55:29.747Z,10.40
2023-03-08T21:59:12.937Z,10.60
2023-03-08T22:02:54.968Z,10.35
2023-03-08T22:06:36.801Z,9.98
2023-03-08T22:10:20.198Z,11.70
2023-03-08T22:14:02.432Z,10.85
2023-03-08T22:17:44.325Z,10.23
2023-03-08T22:21:27.494Z,10.60
2023-03-08T22:25:09.849Z,11.15
2023-03-08T22:28:53.717Z,10.82
2023-03-08T22:32:36.226Z,10.48
2023-03-08T22:36:19.776Z,10.93
2023-03-08T22:40:01.856Z,11.57
2023-03-08T22:43:44.603Z,12.13
2023-03-08T22:47:26.382Z,11.10
2023-03-08T22:51:11.412Z,10.68
2023-03-08T22:54:53.493Z,11.50
2023-03-08T22:58:35.258Z,11.80
2023-03-08T23:02:16.977Z,13.25
2023-03-08T23:05:58.731Z,12.45
2023-03-08T23:09:40.855Z,12.30
2023-03-08T23:13:33.516Z,12.43
2023-03-08T23:17:16.142Z,11.70
2023-03-08T23:21:05.789Z,11.43
2023-03-08T23:24:47.633Z,10.32
2023-03-08T23:28:29.423Z,9.85
2023-03-08T23:32:11.516Z,9.63
2023-03-08T23:35:53.365Z,9.65
2023-03-08T23:39:35.243Z,8.57
2023-03-08T23:43:16.998Z,9.88
2023-03-08T23:46:58.710Z,9.13
2023-03-08T23:50:40.896Z,8.98
2023-03-08T23:54:22.673Z,8.88
2023-03-08T23:58:04.574Z,9.77
